Time,TemperatureF,DewpointF,PressureIn,WindDirection,WindDirectionDegrees,WindSpeedMPH,WindSpeedGustMPH,Humidity,HourlyPrecipIn,Conditions,Clouds,dailyrainin,SoftwareType,DateUTC
2013-09-20 00:00:00,67.8,46.9,29.56,North,0,0.0,0.0,47,0.00,,SKC,-99.99,VWS V12.07,2013-09-19 22:00:00,
2013-09-20 00:10:00,67.8,46.9,29.56,North,0,0.0,0.0,47,0.00,,SKC,-99.99,VWS V12.07,2013-09-19 22:10:00,
2013-09-20 00:20:00,67.8,46.9,29.56,North,0,0.0,0.0,47,0.00,,SKC,-99.99,VWS V12.07,2013-09-19 22:20:00,
2013-09-20 00:30:00,67.8,46.9,29.56,North,0,0.0,0.0,47,0.00,,SKC,-99.99,VWS V12.07,2013-09-19 22:30:00,
2013-09-20 00:40:00,67.6,46.7,29.56,North,0,0.0,0.0,47,0.00,,SKC,-99.99,VWS V12.07,2013-09-19 22:40:00,
2013-09-20 00:50:00,67.6,47.3,29.56,North,0,0.0,0.0,48,0.00,,SKC,-99.99,VWS V12.07,2013-09-19 22:50:00,
2013-09-20 01:00:00,67.5,47.1,29.56,North,0,0.0,0.0,48,0.00,,SKC,-99.99,VWS V12.07,2013-09-19 23:00:00,
2013-09-20 01:10:00,66.9,47.2,29.59,North,0,0.0,0.0,49,0.00,,SKC,-99.99,VWS V12.07,2013-09-19 23:10:00,
2013-09-20 01:20:00,66.6,47.4,29.59,North,0,0.0,0.0,50,0.00,,SKC,-99.99,VWS V12.07,2013-09-19 23:20:00,
2013-09-20 01:30:00,66.4,47.7,29.59,North,0,0.0,0.0,51,0.00,,SKC,-99.99,VWS V12.07,2013-09-19 23:30:00,
2013-09-20 01:40:00,66.4,47.2,29.59,North,0,0.0,0.0,50,0.00,,SKC,-99.99,VWS V12.07,2013-09-19 23:40:00,
2013-09-20 01:50:00,66.2,47.6,29.59,North,0,0.0,0.0,51,0.00,,SKC,-99.99,VWS V12.07,2013-09-19 23:50:00,
2013-09-20 02:00:00,66.2,48.1,29.59,North,0,0.0,0.0,52,0.00,,SKC,-99.99,VWS V12.07,2013-09-20 00:00:00,
2013-09-20 02:10:00,66.0,48.4,29.59,North,0,0.0,0.0,53,0.00,,SKC,-99.99,VWS V12.07,2013-09-20 00:10:00,
2013-09-20 02:20:00,66.0,48.9,29.59,North,0,0.0,0.0,54,0.00,,SKC,-99.99,VWS V12.07,2013-09-20 00:20:00,
2013-09-20 02:30:00,65.8,48.8,29.59,North,0,0.0,0.0,54,0.00,,SKC,-99.99,VWS V12.07,2013-09-20 00:30:00,
2013-09-20 02:40:00,65.8,48.8,29.59,North,0,0.0,0.0,54,0.00,,SKC,-99.99,VWS V12.07,2013-09-20 00:40:00,
2013-09-20 02:50:00,65.7,49.1,29.59,North,0,0.0,0.0,55,0.00,,SKC,-99.99,VWS V12.07,2013-09-20 00:50:00,
2013-09-20 03:00:00,65.5,48.4,29.59,North,0,0.0,0.0,54,0.00,,SKC,-99.99,VWS V12.07,2013-09-20 01:00:00,
2013-09-20 03:10:00,65.5,48.4,29.59,North,0,0.0,0.0,54,0.00,,SKC,-99.99,VWS V12.07,2013-09-20 01:10:00,
2013-09-20 03:20:00,65.7,48.6,29.59,North,0,0.0,0.0,54,0.00,,SKC,-99.99,VWS V12.07,2013-09-20 01:20:00,
2013-09-20 03:30:00,65.5,48.9,29.59,North,0,0.0,0.0,55,0.00,,SKC,-99.99,VWS V12.07,2013-09-20 01:30:00,
2013-09-20 03:40:00,65.3,48.7,29.59,North,0,0.0,0.0,55,0.00,,FEW,-99.99,VWS V12.07,2013-09-20 01:40:00,
2013-09-20 03:50:00,65.3,48.7,29.59,North,0,0.0,0.0,55,0.00,,FEW,-99.99,VWS V12.07,2013-09-20 01:50:00,
2013-09-20 04:00:00,64.8,48.2,29.59,North,0,0.0,0.0,55,0.00,,FEW,-99.99,VWS V12.07,2013-09-20 02:00:00,
2013-09-20 04:10:00,64.8,49.7,29.59,North,0,0.0,0.0,58,0.00,,FEW,-99.99,VWS V12.07,2013-09-20 02:10:00,
2013-09-20 04:20:00,65.1,49.5,29.59,North,0,0.0,0.0,57,0.00,,FEW,-99.99,VWS V12.07,2013-09-20 02:20:00,
2013-09-20 04:30:00,65.3,49.2,29.59,North,0,0.0,0.0,56,0.00,,FEW,-99.99,VWS V12.07,2013-09-20 02:30:00,
2013-09-20 04:40:00,64.9,48.9,29.59,North,0,0.0,0.0,56,0.00,,FEW,-99.99,VWS V12.07,2013-09-20 02:40:00,
2013-09-20 04:50:00,64.9,48.9,29.59,North,0,0.0,0.0,56,0.00,,FEW,-99.99,VWS V12.07,2013-09-20 02:50:00,
2013-09-20 05:00:00,65.3,49.7,29.59,North,0,0.0,0.0,57,0.00,,FEW,-99.99,VWS V12.07,2013-09-20 03:00:00,
2013-09-20 05:10:00,65.3,49.7,29.59,North,0,0.0,0.0,57,0.00,,FEW,-99.99,VWS V12.07,2013-09-20 03:10:00,
2013-09-20 05:20:00,65.5,50.3,29.59,North,0,0.0,0.0,58,0.00,,FEW,-99.99,VWS V12.07,2013-09-20 03:20:00,
2013-09-20 05:30:00,65.7,50.0,29.59,North,0,0.0,0.0,57,0.00,,FEW,-99.99,VWS V12.07,2013-09-20 03:30:00,
2013-09-20 05:40:00,65.7,49.6,29.59,North,0,0.0,0.0,56,0.00,,SCT,-99.99,VWS V12.07,2013-09-20 03:40:00,
2013-09-20 05:50:00,65.1,49.5,29.59,North,0,0.0,0.0,57,0.00,,SCT,-99.99,VWS V12.07,2013-09-20 03:50:00,
2013-09-20 06:00:00,64.2,50.5,29.59,North,0,0.0,0.0,61,0.00,,SCT,-99.99,VWS V12.07,2013-09-20 04:00:00,
2013-09-20 06:05:00,64.0,50.3,29.59,North,0,0.0,0.0,61,0.00,,SCT,-99.99,VWS V12.07,2013-09-20 04:05:00,
2013-09-20 06:11:00,64.2,50.5,29.59,North,0,0.0,0.0,61,0.00,,SCT,-99.99,VWS V12.07,2013-09-20 04:11:00,
2013-09-20 06:20:00,64.4,50.2,29.59,North,0,0.0,0.0,60,0.00,,SCT,-99.99,VWS V12.07,2013-09-20 04:20:00,
2013-09-20 06:25:00,64.2,50.1,29.59,North,0,0.0,0.0,60,0.00,,SCT,-99.99,VWS V12.07,2013-09-20 04:25:00,
2013-09-20 06:30:00,64.0,49.9,29.59,North,0,0.0,0.0,60,0.00,,SCT,-99.99,VWS V12.07,2013-09-20 04:30:00,
2013-09-20 06:40:00,62.8,50.0,29.59,North,0,0.0,0.0,63,0.00,,SCT,-99.99,VWS V12.07,2013-09-20 04:40:00,
2013-09-20 06:50:00,62.4,51.3,29.62,North,0,0.0,0.0,67,0.00,,SCT,-99.99,VWS V12.07,2013-09-20 04:50:00,
2013-09-20 07:00:00,62.8,52.1,29.62,North,0,0.0,0.0,68,0.00,,SCT,-99.99,VWS V12.07,2013-09-20 05:00:00,
2013-09-20 07:10:00,63.0,52.6,29.62,North,0,0.0,0.0,69,0.00,,SCT,-99.99,VWS V12.07,2013-09-20 05:10:00,
2013-09-20 07:20:00,63.1,52.0,29.62,North,0,0.0,0.0,67,0.00,,SCT,-99.99,VWS V12.07,2013-09-20 05:20:00,
2013-09-20 07:30:00,63.7,52.5,29.62,North,0,0.0,0.0,67,0.00,,SCT,-99.99,VWS V12.07,2013-09-20 05:30:00,
2013-09-20 07:40:00,65.3,50.6,29.62,North,0,0.0,0.0,59,0.00,,BKN,-99.99,VWS V12.07,2013-09-20 05:40:00,
2013-09-20 07:50:00,66.2,48.1,29.62,North,0,0.0,0.0,52,0.00,,BKN,-99.99,VWS V12.07,2013-09-20 05:50:00,
2013-09-20 08:00:00,66.0,49.4,29.62,North,0,0.0,0.0,55,0.00,,BKN,-99.99,VWS V12.07,2013-09-20 06:00:00,
2013-09-20 08:05:00,66.0,49.4,29.62,North,0,0.0,0.0,55,0.00,,BKN,-99.99,VWS V12.07,2013-09-20 06:05:00,
2013-09-20 08:10:00,66.0,49.4,29.62,North,0,0.0,0.0,55,0.00,,BKN,-99.99,VWS V12.07,2013-09-20 06:10:00,
2013-09-20 08:20:00,66.0,50.8,29.62,North,0,0.0,0.0,58,0.00,,BKN,-99.99,VWS V12.07,2013-09-20 06:20:00,
2013-09-20 08:31:00,66.0,50.8,29.62,North,0,0.0,0.0,58,0.00,,BKN,-99.99,VWS V12.07,2013-09-20 06:31:00,
2013-09-20 08:40:00,66.2,51.0,29.62,North,0,0.0,0.0,58,0.00,,BKN,-99.99,VWS V12.07,2013-09-20 06:40:00,
2013-09-20 08:51:00,67.8,46.9,29.62,North,0,0.0,0.0,47,0.00,,BKN,-99.99,VWS V12.07,2013-09-20 06:51:00,
2013-09-20 09:01:00,68.9,46.1,29.62,North,0,0.0,0.0,44,0.00,,BKN,-99.99,VWS V12.07,2013-09-20 07:01:00,
2013-09-20 09:10:00,69.4,46.6,29.62,North,0,0.0,0.0,44,0.00,,BKN,-99.99,VWS V12.07,2013-09-20 07:10:00,
2013-09-20 09:20:00,69.4,46.0,29.62,North,0,0.0,0.0,43,0.00,,BKN,-99.99,VWS V12.07,2013-09-20 07:20:00,
2013-09-20 09:30:00,69.6,46.2,29.62,North,0,0.0,0.0,43,0.00,,BKN,-99.99,VWS V12.07,2013-09-20 07:30:00,
2013-09-20 09:40:00,70.0,48.3,29.62,North,0,0.0,0.0,46,0.00,,BKN,-99.99,VWS V12.07,2013-09-20 07:40:00,
2013-09-20 09:50:00,69.4,48.9,29.65,North,0,0.0,0.0,48,0.00,,BKN,-99.99,VWS V12.07,2013-09-20 07:50:00,
2013-09-20 10:00:00,69.6,46.8,29.65,North,0,0.0,0.0,44,0.00,,BKN,-99.99,VWS V12.07,2013-09-20 08:00:00,
2013-09-20 10:10:00,70.9,45.4,29.65,North,0,0.0,0.0,40,0.00,,BKN,-99.99,VWS V12.07,2013-09-20 08:10:00,
2013-09-20 10:20:00,71.6,44.0,29.65,North,0,0.0,0.0,37,0.00,,BKN,-99.99,VWS V12.07,2013-09-20 08:20:00,
2013-09-20 10:30:00,72.7,43.5,29.65,North,0,0.0,0.0,35,0.00,,BKN,-99.99,VWS V12.07,2013-09-20 08:30:00,
2013-09-20 10:40:00,73.4,43.3,29.65,North,0,0.0,0.0,34,0.00,,BKN,-99.99,VWS V12.07,2013-09-20 08:40:00,
2013-09-20 10:50:00,73.6,43.5,29.65,North,0,0.0,0.0,34,0.00,,BKN,-99.99,VWS V12.07,2013-09-20 08:50:00,
2013-09-20 11:00:00,72.7,45.6,29.65,North,0,0.0,0.0,38,0.00,,BKN,-99.99,VWS V12.07,2013-09-20 09:00:00,
2013-09-20 11:10:00,73.2,44.0,29.65,North,0,0.0,0.0,35,0.00,,BKN,-99.99,VWS V12.07,2013-09-20 09:10:00,
2013-09-20 11:20:00,73.8,44.4,29.65,North,0,0.0,0.0,35,0.00,,BKN,-99.99,VWS V12.07,2013-09-20 09:20:00,
2013-09-20 11:30:00,74.1,44.0,29.65,North,0,0.0,0.0,34,0.00,,BKN,-99.99,VWS V12.07,2013-09-20 09:30:00,
2013-09-20 11:40:00,74.8,43.8,29.65,North,0,0.0,0.0,33,0.00,,BKN,-99.99,VWS V12.07,2013-09-20 09:40:00,
2013-09-20 11:55:00,75.9,44.0,29.65,North,0,0.0,0.0,32,0.00,,BKN,-99.99,VWS V12.07,2013-09-20 09:55:00,
2013-09-20 12:00:00,76.6,43.8,29.65,North,0,0.0,0.0,31,0.00,,BKN,-99.99,VWS V12.07,2013-09-20 10:00:00,
2013-09-20 12:10:00,76.5,44.4,29.65,North,0,0.0,0.0,32,0.00,,BKN,-99.99,VWS V12.07,2013-09-20 10:10:00,
2013-09-20 12:20:00,76.6,44.6,29.65,North,0,0.0,0.0,32,0.00,,BKN,-99.99,VWS V12.07,2013-09-20 10:20:00,
2013-09-20 12:30:00,77.2,43.4,29.65,North,0,0.0,0.0,30,0.00,,BKN,-99.99,VWS V12.07,2013-09-20 10:30:00,
2013-09-20 12:40:00,77.4,43.5,29.65,North,0,0.0,0.0,30,0.00,,BKN,-99.99,VWS V12.07,2013-09-20 10:40:00,
2013-09-20 12:50:00,77.5,41.0,29.65,North,0,0.0,0.0,27,0.00,,BKN,-99.99,VWS V12.07,2013-09-20 10:50:00,
2013-09-20 13:00:00,77.7,40.1,29.65,North,0,0.0,0.0,26,0.00,,BKN,-99.99,VWS V12.07,2013-09-20 11:00:00,
2013-09-20 13:10:00,78.4,37.6,29.65,North,0,0.0,0.0,23,0.00,,BKN,-99.99,VWS V12.07,2013-09-20 11:10:00,
2013-09-20 13:20:00,79.0,39.2,29.65,North,0,0.0,0.0,24,0.00,,BKN,-99.99,VWS V12.07,2013-09-20 11:20:00,
2013-09-20 13:30:00,78.6,42.8,29.65,North,0,0.0,0.0,28,0.00,,BKN,-99.99,VWS V12.07,2013-09-20 11:30:00,
2013-09-20 13:40:00,77.9,42.2,29.65,North,0,0.0,0.0,28,0.00,,SCT,-99.99,VWS V12.07,2013-09-20 11:40:00,
2013-09-20 13:50:00,79.5,39.6,29.65,North,0,0.0,0.0,24,0.00,,SCT,-99.99,VWS V12.07,2013-09-20 11:50:00,
2013-09-20 14:00:00,79.0,40.2,29.65,North,0,0.0,0.0,25,0.00,,SCT,-99.99,VWS V12.07,2013-09-20 12:00:00,
2013-09-20 14:10:00,79.0,39.2,29.65,North,0,0.0,0.0,24,0.00,,SCT,-99.99,VWS V12.07,2013-09-20 12:10:00,
2013-09-20 14:20:00,79.5,39.6,29.65,North,0,0.0,0.0,24,0.00,,SCT,-99.99,VWS V12.07,2013-09-20 12:20:00,
2013-09-20 14:30:00,79.2,38.2,29.65,North,0,0.0,0.0,23,0.00,,SCT,-99.99,VWS V12.07,2013-09-20 12:30:00,
2013-09-20 14:40:00,79.7,39.8,29.65,North,0,0.0,0.0,24,0.00,,SCT080,-99.99,VWS V12.07,2013-09-20 12:40:00,
2013-09-20 14:50:00,79.7,38.7,29.62,North,0,0.0,0.0,23,0.00,,SCT080,-99.99,VWS V12.07,2013-09-20 12:50:00,
2013-09-20 15:00:00,80.2,39.1,29.62,North,0,0.0,0.0,23,0.00,,SCT080,-99.99,VWS V12.07,2013-09-20 13:00:00,
2013-09-20 15:10:00,79.9,38.8,29.65,North,0,0.0,0.0,23,0.00,,SCT080,-99.99,VWS V12.07,2013-09-20 13:10:00,
2013-09-20 15:20:00,79.9,38.8,29.65,North,0,0.0,0.0,23,0.00,,SCT080,-99.99,VWS V12.07,2013-09-20 13:20:00,
2013-09-20 15:30:00,79.7,38.7,29.65,North,0,0.0,0.0,23,0.00,,SCT080,-99.99,VWS V12.07,2013-09-20 13:30:00,
2013-09-20 15:40:00,80.2,39.1,29.65,North,0,0.0,0.0,23,0.00,,BKN,-99.99,VWS V12.07,2013-09-20 13:40:00,
2013-09-20 15:50:00,80.8,38.4,29.65,North,0,0.0,0.0,22,0.00,,BKN,-99.99,VWS V12.07,2013-09-20 13:50:00,
2013-09-20 16:00:00,80.2,39.1,29.65,North,0,0.0,0.0,23,0.00,,BKN,-99.99,VWS V12.07,2013-09-20 14:00:00,
2013-09-20 16:10:00,79.9,39.9,29.65,North,0,0.0,0.0,24,0.00,,BKN,-99.99,VWS V12.07,2013-09-20 14:10:00,
2013-09-20 16:20:00,79.0,39.2,29.65,North,0,0.0,0.0,24,0.00,,BKN,-99.99,VWS V12.07,2013-09-20 14:20:00,
2013-09-20 16:30:00,78.8,40.0,29.65,North,0,0.0,0.0,25,0.00,,BKN,-99.99,VWS V12.07,2013-09-20 14:30:00,
2013-09-20 16:40:00,78.1,42.4,29.65,North,0,0.0,0.0,28,0.00,,BKN,-99.99,VWS V12.07,2013-09-20 14:40:00,
2013-09-20 16:50:00,77.7,42.0,29.65,North,0,0.0,0.0,28,0.00,,BKN,-99.99,VWS V12.07,2013-09-20 14:50:00,
2013-09-20 17:00:00,78.1,42.4,29.65,North,0,0.0,0.0,28,0.00,,BKN,-99.99,VWS V12.07,2013-09-20 15:00:00,
2013-09-20 17:10:00,77.9,43.1,29.65,North,0,0.0,0.0,29,0.00,,BKN,-99.99,VWS V12.07,2013-09-20 15:10:00,
2013-09-20 17:20:00,77.4,43.5,29.65,North,0,0.0,0.0,30,0.00,,BKN,-99.99,VWS V12.07,2013-09-20 15:20:00,
2013-09-20 17:30:00,77.5,44.5,29.65,North,0,0.0,0.0,31,0.00,,BKN,-99.99,VWS V12.07,2013-09-20 15:30:00,
2013-09-20 17:40:00,76.6,44.6,29.65,North,0,0.0,0.0,32,0.00,,BKN,-99.99,VWS V12.07,2013-09-20 15:40:00,
2013-09-20 17:50:00,76.8,44.8,29.65,North,0,0.0,0.0,32,0.00,,BKN,-99.99,VWS V12.07,2013-09-20 15:50:00,
2013-09-20 18:00:00,77.0,44.9,29.65,North,0,0.0,0.0,32,0.00,,BKN,-99.99,VWS V12.07,2013-09-20 16:00:00,
2013-09-20 18:10:00,76.6,45.4,29.68,North,0,0.0,0.0,33,0.00,,BKN,-99.99,VWS V12.07,2013-09-20 16:10:00,
2013-09-20 18:20:00,76.5,46.0,29.68,North,0,0.0,0.0,34,0.00,,BKN,-99.99,VWS V12.07,2013-09-20 16:20:00,
2013-09-20 18:30:00,76.1,45.7,29.68,North,0,0.0,0.0,34,0.00,,BKN,-99.99,VWS V12.07,2013-09-20 16:30:00,
2013-09-20 18:40:00,75.4,45.9,29.68,North,0,0.0,0.0,35,0.00,,SCT070,-99.99,VWS V12.07,2013-09-20 16:40:00,
2013-09-20 18:50:00,74.7,46.7,29.68,North,0,0.0,0.0,37,0.00,,SCT070,-99.99,VWS V12.07,2013-09-20 16:50:00,
2013-09-20 19:00:00,74.1,47.6,29.68,North,0,0.0,0.0,39,0.00,,SCT070,-99.99,VWS V12.07,2013-09-20 17:00:00,
2013-09-20 19:10:00,73.8,48.0,29.68,North,0,0.0,0.0,40,0.00,,SCT070,-99.99,VWS V12.07,2013-09-20 17:10:00,
2013-09-20 19:20:00,73.2,48.8,29.68,North,0,0.0,0.0,42,0.00,,SCT070,-99.99,VWS V12.07,2013-09-20 17:20:00,
2013-09-20 19:30:00,73.0,48.6,29.68,North,0,0.0,0.0,42,0.00,,SCT070,-99.99,VWS V12.07,2013-09-20 17:30:00,
2013-09-20 19:40:00,72.9,49.1,29.68,North,0,0.0,0.0,43,0.00,,SCT,-99.99,VWS V12.07,2013-09-20 17:40:00,
2013-09-20 19:50:00,72.9,49.1,29.68,North,0,0.0,0.0,43,0.00,,SCT,-99.99,VWS V12.07,2013-09-20 17:50:00,
2013-09-20 20:00:00,72.9,49.1,29.68,North,0,0.0,0.0,43,0.00,,SCT,-99.99,VWS V12.07,2013-09-20 18:00:00,
2013-09-20 20:10:00,72.7,48.9,29.71,North,0,0.0,0.0,43,0.00,,SCT,-99.99,VWS V12.07,2013-09-20 18:10:00,
2013-09-20 20:20:00,72.5,48.8,29.71,North,0,0.0,0.0,43,0.00,,SCT,-99.99,VWS V12.07,2013-09-20 18:20:00,
2013-09-20 20:30:00,72.3,49.2,29.71,North,0,0.0,0.0,44,0.00,,SCT,-99.99,VWS V12.07,2013-09-20 18:30:00,
2013-09-20 20:40:00,72.0,49.5,29.71,North,0,0.0,0.0,45,0.00,,SCT,-99.99,VWS V12.07,2013-09-20 18:40:00,
2013-09-20 20:50:00,71.8,49.3,29.71,North,0,0.0,0.0,45,0.00,,SCT,-99.99,VWS V12.07,2013-09-20 18:50:00,
2013-09-20 21:00:00,71.6,49.8,29.71,North,0,0.0,0.0,46,0.00,,SCT,-99.99,VWS V12.07,2013-09-20 19:00:00,
2013-09-20 21:10:00,71.2,49.4,29.71,North,0,0.0,0.0,46,0.00,,SCT,-99.99,VWS V12.07,2013-09-20 19:10:00,
2013-09-20 21:20:00,71.4,49.0,29.71,North,0,0.0,0.0,45,0.00,,SCT,-99.99,VWS V12.07,2013-09-20 19:20:00,
2013-09-20 21:30:00,71.8,44.8,29.71,North,0,0.0,0.0,38,0.00,,SCT,-99.99,VWS V12.07,2013-09-20 19:30:00,
2013-09-20 21:40:00,72.0,44.3,29.74,North,0,0.0,0.0,37,0.00,,FEW080,-99.99,VWS V12.07,2013-09-20 19:40:00,
2013-09-20 21:50:00,71.8,44.1,29.74,North,0,0.0,0.0,37,0.00,,FEW080,-99.99,VWS V12.07,2013-09-20 19:50:00,
2013-09-20 22:00:00,71.2,47.0,29.74,North,0,0.0,0.0,42,0.00,,FEW080,-99.99,VWS V12.07,2013-09-20 20:00:00,
2013-09-20 22:11:00,70.7,46.5,29.74,North,0,0.0,0.0,42,0.00,,FEW080,-99.99,VWS V12.07,2013-09-20 20:11:00,
2013-09-20 22:20:00,70.5,46.3,29.74,North,0,0.0,0.0,42,0.00,,FEW080,-99.99,VWS V12.07,2013-09-20 20:20:00,
2013-09-20 22:30:00,70.5,45.7,29.74,North,0,0.0,0.0,41,0.00,,FEW080,-99.99,VWS V12.07,2013-09-20 20:30:00,
2013-09-20 22:40:00,70.7,45.2,29.74,North,0,0.0,0.0,40,0.00,,SKC,-99.99,VWS V12.07,2013-09-20 20:40:00,
2013-09-20 22:50:00,70.5,45.7,29.74,North,0,0.0,0.0,41,0.00,,SKC,-99.99,VWS V12.07,2013-09-20 20:50:00,
2013-09-20 23:00:00,70.0,45.9,29.74,North,0,0.0,0.0,42,0.00,,SKC,-99.99,VWS V12.07,2013-09-20 21:00:00,
2013-09-20 23:10:00,68.7,46.5,29.74,North,0,0.0,0.0,45,0.00,,SKC,-99.99,VWS V12.07,2013-09-20 21:10:00,
2013-09-20 23:20:00,68.7,47.1,29.74,North,0,0.0,0.0,46,0.00,,SKC,-99.99,VWS V12.07,2013-09-20 21:20:00,
2013-09-20 23:30:00,68.9,47.3,29.74,North,0,0.0,0.0,46,0.00,,SKC,-99.99,VWS V12.07,2013-09-20 21:30:00,
2013-09-20 23:40:00,69.1,46.9,29.74,North,0,0.0,0.0,45,0.00,,,-99.99,VWS V12.07,2013-09-20 21:40:00,
2013-09-20 23:50:00,69.1,46.9,29.74,North,0,0.0,0.0,45,0.00,,,-99.99,VWS V12.07,2013-09-20 21:50:00,